LIRS/GRS METAR and TAF weather

Enter ICAO airport designator
Station Type Date Time Source
LIRS METAR 2020/05/30 05:55 UTC NOAA

LIRS 300555Z 23001KT CAVOK 13/10 Q1016


Station Type Date Time Source
LIRS Decoded METAR 2020/05/30 05:55 UTC NOAA

Grosseto, Italy (LIRS) 42-45N 011-04E 7M
May 30, 2020 - 01:55 AM EDT / 2020.05.30 0555 UTC
Wind: from the SW (230 degrees) at 1 MPH (1 KT):0
Visibility: greater than 7 mile(s):0
Temperature: 55 F (13 C)
Dew Point: 50 F (10 C)
Relative Humidity: 81%
Pressure (altimeter): 30.00 in. Hg (1016 hPa)
ob: LIRS 300555Z 23001KT CAVOK 13/10 Q1016
cycle: 6

Station Type Date Time Source
LIRS TAF 2018/06/29 09:24 UTC NOAA

TAF TAF LIRS 290800Z 2909/2921 VRB03KT 9999 FEW030
BECMG 2911/2913 24015KT

Example: see airport list